< < Back
Terminal Aerodrome Forecast


Current Version              Previous Versions:   1  2  3  4  5  6  7  8  9  

Terminal Aerodrome Forecast

932
FTUS42 KGSP 010405 AAB
TAFHKY
TAF AMD
KHKY 010405Z 0104/0124 05007KT 5SM -RA BR OVC007
      TEMPO 0104/0106 2SM RA BR BKN005
     FM010800 14007KT 2SM -SHRA BR OVC003 PROB30 0113/0115 2SM -TSRA
      BR OVC003CB
     FM011500 20007KT P6SM -SHRA VCTS OVC008CB
     FM012100 21010KT P6SM -SHRA VCTS OVC030CB=



Latest METAR

249
SAUS70 KWBC 011000 RRQ
MTRHKY
METAR KHKY 010953Z AUTO 32004KT 10SM -RA BKN007 BKN010 OVC015 14/14
A3005 RMK AO2 RAE19B52 SLP160 P0000 T01390139


USA.gov is the U.S. government's official web portal to all federal, state and local government web resources and services.